Time;durP1;ratioP1;P1;durP2;ratioP2;P2;SDS_P1;SDS_P2;PMS_P1;PMS_P2;Temp;Humidity;BMP_temperature;BMP_pressure;BME280_temperature;BME280_humidity;BME280_pressure;Samples;Min_cycle;Max_cycle;Signal;HPM_P1;HPM_P2
2022/06/11 10:24:28;;;;;;;127.50;20.63;;;;;;;25.40;36.55;97254.28;2073610;28;20561;-66
2022/06/11 13:09:26;;;;;;;120.63;28.40;;;;;;;30.28;31.08;97198.47;2099781;27;20922;-64
2022/06/11 13:19:00;;;;;;;112.57;17.47;;;;;;;30.57;30.40;97194.22;2090640;27;20585;-63
2022/06/11 13:20:09;;;;;;;110.00;19.03;;;;;;;31.22;30.17;97189.19;2086662;28;21009;-64
2022/06/11 13:21:23;;;;;;;110.27;17.30;;;;;;;31.71;29.44;97188.59;2086673;28;20425;-63
2022/06/11 13:22:41;;;;;;;110.20;11.27;;;;;;;32.05;30.60;97186.28;2081728;28;20468;-63
2022/06/11 13:24:13;;;;;;;107.00;7.03;;;;;;;32.12;28.08;97181.75;2092189;28;20424;-63
2022/06/11 13:25:26;;;;;;;107.40;3.30;;;;;;;32.09;28.31;97179.47;2078528;28;20434;-63
2022/06/11 13:27:05;;;;;;;107.93;2.40;;;;;;;31.35;27.90;97170.50;2077626;28;20457;-63
2022/06/11 13:28:34;;;;;;;109.50;3.40;;;;;;;29.92;31.53;97164.06;2078324;28;20925;-64
2022/06/11 13:29:47;;;;;;;110.23;6.53;;;;;;;31.33;29.42;97177.94;2078622;28;20434;-63
2022/06/11 13:31:09;;;;;;;111.90;4.40;;;;;;;31.79;28.71;97178.72;2078154;28;20434;-64
2022/06/11 13:32:23;;;;;;;107.17;4.10;;;;;;;32.23;28.29;97178.59;2082774;28;20468;-63
2022/06/11 13:33:27;;;;;;;104.97;6.23;;;;;;;32.56;28.03;97186.16;2086681;28;20433;-63
2022/06/11 13:34:53;;;;;;;107.27;3.27;;;;;;;32.61;26.57;97182.00;2086507;28;20517;-63
2022/06/11 13:35:58;;;;;;;104.40;2.93;;;;;;;31.65;27.27;97173.16;2086148;28;20786;-62
2022/06/11 13:37:31;;;;;;;147.07;32.73;;;;;;;32.05;27.44;97167.38;2082305;28;20562;-62
2022/06/11 13:39:07;;;;;;;124.20;18.27;;;;;;;32.54;26.99;97177.41;2102303;28;20455;-62
2022/06/11 13:40:27;;;;;;;106.60;6.70;;;;;;;33.22;27.17;97176.84;2086741;28;20808;-64
2022/06/11 13:41:47;;;;;;;107.63;6.80;;;;;;;32.44;27.92;97173.38;2086036;28;20414;-63
2022/06/11 13:43:02;;;;;;;104.47;5.97;;;;;;;32.77;27.69;97176.34;2086323;28;20444;-63
2022/06/11 13:44:21;;;;;;;106.80;5.33;;;;;;;32.39;26.24;97169.38;2086410;28;20429;-63
2022/06/11 13:45:32;;;;;;;104.97;4.87;;;;;;;30.94;28.56;97179.03;2086819;28;20436;-63
2022/06/11 13:46:47;;;;;;;109.10;9.53;;;;;;;31.80;28.13;97175.84;2084689;28;20444;-63
2022/06/11 13:47:54;;;;;;;103.33;5.63;;;;;;;32.39;28.05;97172.09;2086378;28;20468;-64
2022/06/11 13:49:20;;;;;;;103.83;4.73;;;;;;;32.70;26.75;97164.63;2086028;28;20429;-63
2022/06/11 13:50:33;;;;;;;103.40;4.83;;;;;;;32.74;27.70;97165.94;2085740;28;20425;-62
2022/06/11 13:51:38;;;;;;;105.60;3.70;;;;;;;32.98;27.23;97159.22;2086185;28;20787;-63
2022/06/11 13:55:49;;;;;;;105.60;2.60;;;;;;;32.70;27.60;97156.53;2085306;28;20429;-63
2022/06/11 13:57:06;;;;;;;105.77;3.57;;;;;;;31.73;27.86;97164.97;2080910;28;20425;-62
2022/06/11 13:58:21;;;;;;;103.17;2.40;;;;;;;32.20;27.94;97153.81;2100922;28;20431;-62
2022/06/11 13:59:38;;;;;;;105.60;2.60;;;;;;;32.59;27.57;97149.78;2089928;28;20429;-63
2022/06/11 14:00:47;;;;;;;100.90;2.70;;;;;;;32.73;27.68;97158.81;2086482;28;20814;-64
2022/06/11 14:02:06;;;;;;;102.27;3.03;;;;;;;32.86;26.42;97155.41;2080418;28;20565;-64
2022/06/11 14:03:36;;;;;;;105.83;2.60;;;;;;;31.96;26.72;97147.78;2101153;28;20434;-64
2022/06/11 14:04:47;;;;;;;105.10;2.60;;;;;;;32.62;26.54;97148.56;2086453;28;20425;-64
2022/06/11 14:05:50;;;;;;;103.73;3.00;;;;;;;31.13;26.76;97155.28;2086343;28;20425;-64
2022/06/11 14:06:56;;;;;;;106.47;2.93;;;;;;;30.42;28.09;97149.19;2080025;28;20425;-64
2022/06/11 14:08:04;;;;;;;101.93;2.20;;;;;;;30.93;28.74;97145.00;2100825;28;20471;-64
2022/06/11 14:10:43;;;;;;;115.77;7.30;;;;;;;31.14;29.41;97146.16;2086089;28;20796;-64
2022/06/11 14:11:45;;;;;;;108.23;4.00;;;;;;;31.65;29.23;97143.47;2084077;28;20742;-64
2022/06/11 14:12:56;;;;;;;105.50;2.63;;;;;;;31.42;28.61;97140.91;2086499;28;20465;-64
2022/06/11 14:14:24;;;;;;;102.20;2.67;;;;;;;31.82;28.46;97121.66;2086796;28;20785;-64
2022/06/11 14:15:40;;;;;;;105.33;2.60;;;;;;;32.48;27.94;97144.91;2086326;28;20469;-64
2022/06/11 14:16:44;;;;;;;104.23;2.50;;;;;;;32.22;27.94;97146.38;2078275;28;20431;-64
2022/06/11 14:17:51;;;;;;;106.10;3.27;;;;;;;31.77;28.72;97145.69;2093145;28;20802;-63
2022/06/11 14:18:53;;;;;;;108.33;3.90;;;;;;;31.85;28.67;97141.00;2090353;28;20501;-64
2022/06/11 14:20:17;;;;;;;103.83;3.87;;;;;;;32.08;27.99;97138.09;2086376;28;20433;-64
2022/06/11 14:21:40;;;;;;;106.20;5.40;;;;;;;32.04;28.85;97144.09;2101142;28;20424;-64
2022/06/11 14:22:52;;;;;;;102.70;4.00;;;;;;;32.44;27.92;97144.47;2096166;28;20441;-64
2022/06/11 14:23:53;;;;;;;109.30;5.20;;;;;;;32.12;28.45;97137.72;2087155;28;20422;-64
2022/06/11 14:24:57;;;;;;;103.60;6.30;;;;;;;32.00;28.13;97138.25;2087712;28;20810;-64
2022/06/11 14:26:04;;;;;;;108.20;6.10;;;;;;;32.45;27.92;97140.75;2087052;28;20456;-63
2022/06/11 14:27:39;;;;;;;106.60;6.80;;;;;;;32.42;27.59;97138.44;2084433;28;20459;-64
2022/06/11 14:28:57;;;;;;;105.77;5.03;;;;;;;32.37;27.39;97138.19;2100591;28;20424;-64
2022/06/11 14:30:07;;;;;;;103.60;3.73;;;;;;;32.29;27.46;97141.03;2081246;28;20449;-64
2022/06/11 14:31:10;;;;;;;107.67;4.33;;;;;;;32.20;27.40;97141.16;2079525;28;20453;-64
2022/06/11 14:32:11;;;;;;;105.97;3.90;;;;;;;31.81;27.49;97136.16;2080513;28;20457;-64
2022/06/11 14:33:13;;;;;;;100.87;4.10;;;;;;;31.57;27.92;97146.28;2080997;28;20790;-65
2022/06/11 14:34:20;;;;;;;104.30;6.47;;;;;;;31.95;28.10;97146.09;2080709;28;20434;-64
2022/06/11 14:35:26;;;;;;;106.07;5.80;;;;;;;31.70;27.42;97140.22;2081009;28;20426;-65
2022/06/11 14:36:28;;;;;;;105.57;5.50;;;;;;;31.09;28.28;97136.75;2079007;28;20430;-64
2022/06/11 14:37:32;;;;;;;103.20;6.60;;;;;;;31.22;28.49;97140.66;2085515;28;20472;-64
2022/06/11 14:38:39;;;;;;;105.80;8.70;;;;;;;31.45;28.16;97143.22;2095965;28;20993;-64
2022/06/11 14:39:43;;;;;;;102.70;6.53;;;;;;;31.21;28.43;97136.28;2079580;28;20426;-64
2022/06/11 14:40:46;;;;;;;118.80;14.80;;;;;;;31.77;28.55;97149.22;2080583;28;20434;-63
2022/06/11 14:41:49;;;;;;;105.33;7.00;;;;;;;31.57;27.73;97138.19;2074244;28;20426;-64
2022/06/11 14:42:58;;;;;;;106.63;11.03;;;;;;;31.06;29.00;97139.00;2096515;28;20430;-64
2022/06/11 14:44:01;;;;;;;112.50;15.43;;;;;;;31.33;29.32;97139.34;2089942;28;20426;-63
2022/06/11 14:45:37;;;;;;;110.50;17.40;;;;;;;31.61;29.56;97142.16;2080691;28;20437;-63
2022/06/11 14:46:45;;;;;;;115.70;15.90;;;;;;;31.46;29.86;97139.50;2071341;28;20427;-64
2022/06/11 14:47:52;;;;;;;111.97;15.77;;;;;;;31.38;29.62;97136.91;2095537;28;20432;-63
2022/06/11 14:48:56;;;;;;;107.30;15.20;;;;;;;31.27;29.90;97143.63;2091278;28;20416;-64
2022/06/11 14:49:57;;;;;;;110.17;13.90;;;;;;;31.53;29.75;97139.59;2080825;28;20429;-64
2022/06/11 14:51:09;;;;;;;108.67;14.63;;;;;;;31.39;29.63;97146.69;2080649;28;20441;-65
2022/06/11 14:52:15;;;;;;;111.10;15.80;;;;;;;31.20;30.16;97146.25;2080105;28;20469;-64
2022/06/11 14:53:29;;;;;;;109.20;14.83;;;;;;;31.11;29.82;97144.69;2080466;28;20484;-64
2022/06/11 14:54:33;;;;;;;111.87;14.17;;;;;;;31.44;29.11;97149.66;2079369;28;20429;-64
2022/06/11 14:55:41;;;;;;;110.60;15.73;;;;;;;31.57;28.65;97128.22;2081579;28;20734;-64
2022/06/11 14:56:43;;;;;;;107.77;13.07;;;;;;;31.56;28.89;97144.59;2072537;28;20434;-64
2022/06/11 14:58:06;;;;;;;108.90;13.60;;;;;;;31.52;28.44;97140.63;2095972;28;20432;-64
2022/06/11 14:59:48;;;;;;;104.33;5.70;;;;;;;31.25;29.22;97137.59;2087066;28;20482;-63
2022/06/11 15:01:05;;;;;;;102.97;7.93;;;;;;;31.01;30.47;97144.91;2080180;28;20785;-63
2022/06/11 15:02:35;;;;;;;102.50;8.07;;;;;;;31.09;29.46;97138.63;2078840;28;20890;-65
2022/06/11 15:03:57;;;;;;;103.57;7.93;;;;;;;30.48;30.53;97134.19;2095975;28;20425;-63
2022/06/11 15:05:13;;;;;;;99.50;9.03;;;;;;;29.50;31.70;97136.53;2080162;28;20437;-63
2022/06/11 15:06:22;;;;;;;100.80;9.33;;;;;;;29.90;32.12;97136.47;2078370;28;20430;-63
2022/06/11 15:07:26;;;;;;;102.70;8.57;;;;;;;29.49;32.08;97140.25;2083544;28;20464;-63
2022/06/11 15:08:58;;;;;;;98.77;6.50;;;;;;;29.38;32.96;97132.56;2096096;28;20435;-63
2022/06/11 15:10:09;;;;;;;100.50;7.77;;;;;;;28.80;33.46;97127.41;2079864;28;20426;-63
2022/06/11 15:11:35;;;;;;;101.53;8.60;;;;;;;28.82;33.88;97136.09;2079530;28;20418;-64
2022/06/11 15:13:00;;;;;;;100.60;6.33;;;;;;;28.65;34.11;97135.28;2079898;28;20449;-63
2022/06/11 15:14:48;;;;;;;99.20;6.80;;;;;;;28.85;34.02;97133.09;2079065;28;20433;-64
2022/06/11 15:15:59;;;;;;;100.30;7.20;;;;;;;28.31;34.74;97121.03;2070725;28;20797;-63
2022/06/11 15:17:16;;;;;;;100.97;5.73;;;;;;;29.13;33.87;97129.97;2075385;28;21067;-63
2022/06/11 15:18:28;;;;;;;101.13;4.47;;;;;;;28.83;33.50;97132.41;2095852;28;20459;-63
2022/06/11 15:19:31;;;;;;;98.27;3.87;;;;;;;29.17;34.12;97132.13;2081546;28;20462;-60
2022/06/11 15:20:42;;;;;;;99.40;4.40;;;;;;;29.38;32.91;97132.56;2080279;28;20513;-60
2022/06/11 15:21:54;;;;;;;103.00;5.77;;;;;;;29.91;32.28;97114.75;2072831;28;20781;-60
2022/06/11 15:22:59;;;;;;;103.93;7.60;;;;;;;29.41;31.71;97130.38;2096274;28;20436;-60
2022/06/11 15:24:16;;;;;;;102.83;5.50;;;;;;;30.17;31.42;97136.94;2089850;28;20434;-60
2022/06/11 15:25:23;;;;;;;108.33;7.67;;;;;;;30.30;31.55;97129.09;2078878;28;20430;-60
2022/06/11 15:26:29;;;;;;;100.67;6.20;;;;;;;30.86;31.19;97138.69;2080173;28;20920;-62
2022/06/11 15:27:36;;;;;;;103.60;7.80;;;;;;;30.84;30.90;97130.78;2085403;28;20621;-62
2022/06/11 15:28:37;;;;;;;106.53;4.87;;;;;;;31.03;31.85;97129.41;2094770;28;20436;-62
2022/06/11 15:29:39;;;;;;;96.57;4.50;;;;;;;30.83;31.93;97131.81;2079576;28;20426;-62
2022/06/11 15:30:42;;;;;;;97.30;4.00;;;;;;;31.07;31.64;97133.44;2080166;28;20422;-63
2022/06/11 15:31:52;;;;;;;98.87;4.90;;;;;;;29.91;32.16;97135.47;2078285;28;20438;-62
2022/06/11 15:33:24;;;;;;;102.50;7.60;;;;;;;30.50;31.09;97120.53;2080244;28;20436;-63
2022/06/11 15:34:51;;;;;;;104.53;9.90;;;;;;;30.66;30.79;97138.41;2074872;28;20430;-63
2022/06/11 15:36:04;;;;;;;112.33;15.70;;;;;;;29.97;31.79;97129.38;2080293;28;20426;-65
2022/06/11 15:37:15;;;;;;;111.63;19.40;;;;;;;30.62;31.23;97127.16;2078365;28;20460;-64
2022/06/11 15:38:20;;;;;;;112.37;19.50;;;;;;;29.92;32.05;97123.69;2095900;28;20433;-63
2022/06/11 15:39:22;;;;;;;113.27;20.83;;;;;;;30.21;31.82;97132.91;2082545;28;20457;-65
2022/06/11 15:40:29;;;;;;;111.93;21.47;;;;;;;30.71;31.23;97131.41;2080200;28;20431;-65
2022/06/11 15:41:42;;;;;;;109.90;17.30;;;;;;;31.05;30.71;97130.03;2079278;28;20422;-65
2022/06/11 15:42:46;;;;;;;104.43;11.50;;;;;;;31.16;30.48;97125.22;2080208;28;20434;-64
2022/06/11 15:43:51;;;;;;;108.67;13.57;;;;;;;30.80;30.76;97123.25;2095664;28;20454;-62
2022/06/11 15:44:53;;;;;;;106.97;12.00;;;;;;;31.11;30.84;97120.41;2087077;28;20432;-63
2022/06/11 15:46:01;;;;;;;103.40;11.97;;;;;;;31.30;31.07;97123.53;2078665;28;20422;-64
2022/06/11 15:47:06;;;;;;;102.23;10.20;;;;;;;31.42;30.78;97125.53;2076790;28;20619;-64
2022/06/11 15:48:28;;;;;;;104.67;9.77;;;;;;;30.98;31.27;97104.00;2096065;28;20433;-64
2022/06/11 15:49:39;;;;;;;114.03;12.10;;;;;;;30.62;30.76;97127.16;2081480;28;20788;-65
2022/06/11 15:51:02;;;;;;;110.40;10.93;;;;;;;30.06;32.12;97127.47;2079557;28;20499;-64
2022/06/11 15:52:34;;;;;;;108.03;11.43;;;;;;;29.85;32.56;97123.53;2079328;28;20466;-63
2022/06/11 15:55:18;;;;;;;105.40;11.07;;;;;;;29.89;32.71;97127.59;2080159;28;20599;-62
2022/06/11 15:56:28;;;;;;;106.67;11.70;;;;;;;29.87;32.71;97126.88;2078900;28;20430;-60
2022/06/11 15:57:31;;;;;;;110.23;12.50;;;;;;;29.92;31.95;97129.91;2077416;28;20476;-60
2022/06/11 15:58:38;;;;;;;109.70;13.30;;;;;;;29.93;32.40;97130.75;2095151;28;20432;-59
2022/06/11 15:59:39;;;;;;;107.77;11.53;;;;;;;30.10;32.52;97126.06;2080244;28;20455;-60
2022/06/11 16:00:49;;;;;;;104.10;11.13;;;;;;;29.97;32.68;97118.59;2080043;28;20425;-60
2022/06/11 16:01:54;;;;;;;105.40;10.97;;;;;;;30.00;32.91;97122.78;2074087;28;20752;-61
2022/06/11 16:03:08;;;;;;;104.20;11.10;;;;;;;29.73;32.47;97123.09;2095713;28;20417;-60
2022/06/11 16:04:18;;;;;;;105.10;11.77;;;;;;;29.75;31.97;97128.31;2085576;28;20438;-62
2022/06/11 16:05:30;;;;;;;109.87;11.40;;;;;;;29.74;31.86;97108.66;2079451;28;20468;-60
2022/06/11 16:06:31;;;;;;;113.20;16.83;;;;;;;29.67;32.14;97125.69;2079008;28;20452;-60
2022/06/11 16:07:33;;;;;;;122.87;20.67;;;;;;;29.91;32.21;97130.91;2085733;28;20491;-60
2022/06/11 16:08:50;;;;;;;119.03;25.97;;;;;;;29.53;33.13;97122.72;2095997;28;20563;-61
2022/06/11 16:09:53;;;;;;;119.37;24.23;;;;;;;29.33;33.11;97116.94;2080009;28;20433;-60
2022/06/11 16:11:09;;;;;;;114.50;25.03;;;;;;;29.65;33.33;97117.78;2079234;28;20434;-61
2022/06/11 16:12:30;;;;;;;116.77;28.10;;;;;;;29.45;34.20;97125.47;2079369;28;20460;-60
2022/06/11 16:13:34;;;;;;;117.87;30.10;;;;;;;29.61;33.44;97113.75;2079308;28;20427;-60
2022/06/11 16:14:41;;;;;;;115.67;28.57;;;;;;;29.82;32.45;97123.91;2079689;28;20441;-60
2022/06/11 16:15:43;;;;;;;118.37;27.50;;;;;;;29.95;32.49;97112.56;2079592;28;20426;-60
